Time;durP1;ratioP1;P1;durP2;ratioP2;P2;SDS_P1;SDS_P2;PMS_P1;PMS_P2;Temp;Humidity;BMP_temperature;BMP_pressure;BME280_temperature;BME280_humidity;BME280_pressure;Samples;Min_cycle;Max_cycle;Signal;HPM_P1;HPM_P2
2022/12/22 05:01:27;;;;;;;8.25;3.20;;;;;;;9.29;75.91;101954.45;1777851;80;21037;-51
2022/12/22 05:03:54;;;;;;;11.05;2.77;;;;;;;9.63;74.28;101956.65;1769945;80;21002;-50
2022/12/22 05:06:20;;;;;;;10.55;2.92;;;;;;;9.79;73.88;101960.56;1751357;80;21537;-51
2022/12/22 05:08:47;;;;;;;5.87;1.92;;;;;;;9.96;72.89;101967.50;1755755;80;21050;-51
2022/12/22 05:11:13;;;;;;;8.05;2.25;;;;;;;10.10;71.93;101964.06;1754728;80;21496;-50
2022/12/22 05:13:40;;;;;;;6.25;2.08;;;;;;;10.26;71.10;101963.17;1764287;80;21026;-51
2022/12/22 05:16:09;;;;;;;4.70;1.67;;;;;;;10.40;70.70;101958.84;1752004;81;21541;-50
2022/12/22 05:18:36;;;;;;;3.60;1.72;;;;;;;10.54;70.14;101962.27;1756479;81;20987;-50
2022/12/22 05:21:07;;;;;;;3.52;1.65;;;;;;;10.65;69.32;101958.34;1753195;81;21026;-51
2022/12/22 05:23:34;;;;;;;7.05;2.35;;;;;;;10.76;68.83;101956.55;1708127;82;21099;-51
2022/12/22 05:26:00;;;;;;;3.87;1.85;;;;;;;10.85;68.29;101964.34;1713021;83;21095;-50
2022/12/22 05:28:27;;;;;;;6.70;2.02;;;;;;;10.93;67.92;101965.61;1713504;83;21095;-50
2022/12/22 05:30:53;;;;;;;3.45;1.60;;;;;;;11.00;67.46;101962.13;1700611;83;21049;-50
2022/12/22 05:33:20;;;;;;;3.85;1.65;;;;;;;11.06;67.06;101965.56;1712023;83;21027;-50
2022/12/22 05:35:47;;;;;;;6.60;2.50;;;;;;;11.11;66.83;101965.09;1717636;81;21191;-50
2022/12/22 05:38:14;;;;;;;4.30;1.98;;;;;;;11.17;65.92;101970.27;1706087;82;21077;-50
2022/12/22 05:40:40;;;;;;;6.47;2.30;;;;;;;11.21;65.57;101975.89;1706368;82;21093;-50
2022/12/22 05:43:08;;;;;;;5.42;2.15;;;;;;;11.23;65.58;101974.14;1689891;82;21480;-52
2022/12/22 05:45:35;;;;;;;7.87;2.20;;;;;;;11.25;65.40;101975.00;1703592;83;21558;-50
2022/12/22 05:48:01;;;;;;;6.65;2.17;;;;;;;11.30;65.18;101968.05;1697067;82;21114;-50
2022/12/22 05:50:28;;;;;;;5.03;1.65;;;;;;;11.34;65.29;101969.76;1683209;83;21751;-50
2022/12/22 05:53:00;;;;;;;7.72;2.80;;;;;;;11.36;64.75;101970.61;1692949;83;21543;-50
2022/12/22 05:55:27;;;;;;;4.75;2.12;;;;;;;11.37;64.69;101980.14;1705183;83;21088;-50
2022/12/22 05:57:53;;;;;;;3.72;1.87;;;;;;;11.39;64.32;101975.82;1697432;82;21592;-50
2022/12/22 06:00:21;;;;;;;6.35;2.15;;;;;;;11.40;64.02;101980.14;1725885;81;21083;-50
2022/12/22 06:02:48;;;;;;;10.55;2.27;;;;;;;11.41;64.22;101972.77;1702809;83;21063;-50
2022/12/22 06:05:14;;;;;;;6.08;2.50;;;;;;;11.44;64.23;101970.55;1700492;83;21091;-50
2022/12/22 06:07:43;;;;;;;5.70;2.15;;;;;;;11.48;64.46;101972.73;1699639;83;21069;-50
2022/12/22 06:10:10;;;;;;;6.83;2.08;;;;;;;11.51;64.32;101976.17;1691204;83;21077;-50
2022/12/22 06:12:38;;;;;;;6.05;1.87;;;;;;;11.54;63.90;101974.83;1697287;83;21036;-50
2022/12/22 06:15:06;;;;;;;7.90;1.92;;;;;;;11.56;63.69;101980.91;1700603;83;21031;-50
2022/12/22 06:17:35;;;;;;;6.22;2.00;;;;;;;11.58;63.61;101973.09;1697586;83;21022;-50
2022/12/22 06:20:02;;;;;;;7.03;2.20;;;;;;;11.61;63.31;101979.14;1725192;80;21069;-50
2022/12/22 06:22:29;;;;;;;6.55;2.00;;;;;;;11.61;63.30;101966.11;1766245;80;21038;-50
2022/12/22 06:24:55;;;;;;;8.03;1.92;;;;;;;11.60;63.35;101972.22;1745222;80;21062;-49
2022/12/22 06:27:22;;;;;;;2.05;1.22;;;;;;;11.59;63.10;101966.56;1752018;80;21042;-50
2022/12/22 06:29:48;;;;;;;6.08;1.70;;;;;;;11.57;62.95;101975.26;1743866;80;21070;-50
2022/12/22 06:32:15;;;;;;;6.47;2.17;;;;;;;11.57;62.98;101972.22;1752124;81;21058;-50
2022/12/22 06:34:41;;;;;;;7.25;2.33;;;;;;;11.59;62.98;101973.50;1754744;80;21029;-50
2022/12/22 06:37:08;;;;;;;6.47;1.87;;;;;;;11.61;63.11;101965.23;1759506;80;21014;-50
2022/12/22 06:39:35;;;;;;;4.53;2.02;;;;;;;11.62;62.76;101974.80;1760866;80;21026;-50
2022/12/22 06:44:49;;;;;;;5.95;2.17;;;;;;;11.62;62.91;101973.08;1758669;81;21038;-50
2022/12/22 06:47:16;;;;;;;6.95;2.05;;;;;;;11.63;62.84;101974.79;1761395;80;21521;-50
2022/12/22 06:49:42;;;;;;;4.75;2.22;;;;;;;11.66;62.86;101979.13;1761942;80;21003;-50
2022/12/22 06:52:09;;;;;;;5.62;1.80;;;;;;;11.67;62.59;101986.08;1756455;80;21080;-50
2022/12/22 06:54:36;;;;;;;10.05;1.85;;;;;;;11.68;62.46;101987.83;1758597;81;21494;-50
2022/12/22 06:57:02;;;;;;;3.75;1.90;;;;;;;11.68;62.47;101990.44;1752431;80;21064;-50
2022/12/22 06:59:29;;;;;;;5.72;2.15;;;;;;;11.68;62.42;101986.10;1746952;80;21505;-50
2022/12/22 07:01:55;;;;;;;6.37;2.47;;;;;;;11.71;62.43;101982.58;1730997;80;21045;-50
2022/12/22 07:04:22;;;;;;;3.42;1.70;;;;;;;11.74;62.68;101985.18;1763149;80;21525;-50
2022/12/22 07:06:49;;;;;;;5.42;2.02;;;;;;;11.76;62.30;101984.73;1759007;80;21047;-50
2022/12/22 07:09:16;;;;;;;6.40;2.30;;;;;;;11.76;62.05;101989.52;1757990;80;21034;-50
2022/12/22 07:11:43;;;;;;;4.45;1.45;;;;;;;11.76;62.12;101986.91;1762674;80;21502;-50
2022/12/22 07:14:10;;;;;;;8.38;2.40;;;;;;;11.77;62.28;101987.75;1758787;80;21047;-50
2022/12/22 07:16:37;;;;;;;5.40;1.85;;;;;;;11.78;62.36;101987.77;1774150;80;21034;-51
2022/12/22 07:19:04;;;;;;;7.40;1.87;;;;;;;11.81;62.19;101988.19;1752271;81;21038;-50
2022/12/22 07:21:30;;;;;;;5.58;1.75;;;;;;;11.83;62.18;101982.52;1764675;79;21105;-50
2022/12/22 07:23:57;;;;;;;10.85;1.82;;;;;;;11.85;62.09;101983.38;1763316;80;21077;-50
2022/12/22 07:26:23;;;;;;;4.20;1.98;;;;;;;11.87;62.25;101985.53;1769523;80;21046;-50
2022/12/22 07:28:50;;;;;;;5.35;1.90;;;;;;;11.88;62.18;101986.81;1745297;80;21022;-50
2022/12/22 07:31:17;;;;;;;8.53;1.80;;;;;;;11.90;62.20;101983.75;1722508;82;21489;-50
2022/12/22 07:33:43;;;;;;;3.58;1.87;;;;;;;11.93;62.12;101981.57;1711134;82;21011;-50
2022/12/22 07:36:13;;;;;;;8.05;2.00;;;;;;;11.97;61.90;101981.97;1726243;82;21039;-50
2022/12/22 07:38:42;;;;;;;7.15;1.80;;;;;;;12.00;61.89;101985.84;1726226;82;21027;-50
2022/12/22 07:43:57;;;;;;;4.70;2.45;;;;;;;12.01;61.27;101983.67;1766530;80;21092;-50
2022/12/22 07:46:25;;;;;;;6.83;2.25;;;;;;;12.06;61.46;101991.01;1760267;80;21003;-50
2022/12/22 07:51:39;;;;;;;6.97;2.27;;;;;;;12.11;61.19;101982.72;1753715;80;21035;-50
2022/12/22 07:54:08;;;;;;;7.42;2.22;;;;;;;12.12;61.25;101981.39;1764119;80;21096;-49
2022/12/22 07:56:36;;;;;;;9.08;2.33;;;;;;;12.16;61.30;101984.83;1757646;80;21043;-49
2022/12/22 07:59:03;;;;;;;10.00;2.50;;;;;;;12.18;61.33;101981.77;1760260;80;21521;-50
2022/12/22 08:01:29;;;;;;;12.50;3.00;;;;;;;12.21;61.26;101983.93;1755107;81;21039;-50
2022/12/22 08:03:57;;;;;;;4.58;2.30;;;;;;;12.24;61.45;101977.83;1745396;80;21058;-51
2022/12/22 08:06:24;;;;;;;5.60;2.33;;;;;;;12.29;61.10;101983.85;1725517;80;21011;-51
2022/12/22 08:08:50;;;;;;;5.60;2.37;;;;;;;12.31;60.94;101975.56;1759569;80;21025;-50
2022/12/22 08:11:17;;;;;;;7.10;3.10;;;;;;;12.33;60.84;101975.55;1760363;80;21498;-50
2022/12/22 08:13:43;;;;;;;7.10;2.22;;;;;;;12.32;60.56;101977.31;1766033;80;21061;-50
2022/12/22 08:16:12;;;;;;;7.45;2.22;;;;;;;12.29;60.78;101979.94;1749005;80;21044;-50
2022/12/22 08:18:39;;;;;;;8.20;2.95;;;;;;;12.29;60.68;101976.02;1759038;80;21032;-51
2022/12/22 08:21:06;;;;;;;8.85;2.72;;;;;;;12.29;60.59;101979.94;1752951;81;21569;-50
2022/12/22 08:23:33;;;;;;;9.65;3.80;;;;;;;12.32;60.55;101981.23;1756445;80;21529;-50
2022/12/22 08:26:06;;;;;;;5.67;2.52;;;;;;;12.33;60.45;101976.84;1759697;80;21046;-50
2022/12/22 08:28:34;;;;;;;6.28;2.12;;;;;;;12.34;60.54;101970.33;1705040;83;21148;-49
2022/12/22 08:31:01;;;;;;;10.15;2.17;;;;;;;12.38;60.28;101977.25;1706856;83;21101;-50
2022/12/22 08:33:28;;;;;;;8.35;2.10;;;;;;;12.41;60.12;101978.51;1701863;83;20990;-50
2022/12/22 08:35:55;;;;;;;9.25;2.60;;;;;;;12.44;60.12;101965.44;1697638;83;21102;-50
2022/12/22 08:38:22;;;;;;;6.90;1.87;;;;;;;12.50;60.30;101966.68;1701302;83;21596;-50
2022/12/22 08:40:48;;;;;;;6.42;2.22;;;;;;;12.59;60.20;101975.70;1710330;83;21068;-50
2022/12/22 08:43:15;;;;;;;9.45;2.40;;;;;;;12.61;60.30;101968.72;1701191;83;21060;-50
2022/12/22 08:45:42;;;;;;;6.50;2.37;;;;;;;12.59;60.33;101972.25;1696750;83;21090;-50
2022/12/22 08:48:09;;;;;;;7.25;2.10;;;;;;;12.59;60.62;101962.65;1695857;83;21058;-50
2022/12/22 08:50:37;;;;;;;10.80;2.67;;;;;;;12.62;60.32;101965.24;1699365;83;21035;-50
2022/12/22 08:53:06;;;;;;;7.30;2.20;;;;;;;12.66;59.94;101963.02;1700391;83;21049;-50
2022/12/22 08:55:32;;;;;;;7.92;2.15;;;;;;;12.70;59.75;101967.76;1706757;83;21035;-51
2022/12/22 08:57:59;;;;;;;5.55;1.92;;;;;;;12.70;59.54;101961.23;1704188;83;21103;-50
2022/12/22 09:00:25;;;;;;;8.53;2.17;;;;;;;12.68;59.58;101956.03;1717087;83;21083;-50
2022/12/22 09:02:52;;;;;;;8.10;2.50;;;;;;;12.69;59.83;101958.21;1699581;83;21047;-49
2022/12/22 09:05:18;;;;;;;4.78;1.92;;;;;;;12.71;59.63;101957.32;1698449;83;21563;-50
2022/12/22 09:07:47;;;;;;;8.53;2.40;;;;;;;12.73;59.39;101955.55;1699131;83;21090;-50
2022/12/22 09:10:14;;;;;;;6.80;1.90;;;;;;;12.74;59.42;101949.86;1700177;83;21101;-50
2022/12/22 09:12:41;;;;;;;9.73;1.98;;;;;;;12.74;59.32;101949.43;1702322;83;21073;-50
2022/12/22 09:15:09;;;;;;;5.55;2.12;;;;;;;12.74;59.45;101946.81;1698596;83;21071;-50
2022/12/22 09:17:36;;;;;;;6.15;2.00;;;;;;;12.71;59.55;101942.08;1706220;83;21034;-50
2022/12/22 09:20:05;;;;;;;5.42;1.65;;;;;;;12.72;59.42;101936.83;1692657;83;21097;-50
2022/12/22 09:22:31;;;;;;;4.20;1.72;;;;;;;12.69;59.35;101938.19;1709179;83;21098;-50
2022/12/22 09:24:58;;;;;;;8.23;2.30;;;;;;;12.69;59.21;101934.27;1716026;82;21009;-50
2022/12/22 09:27:25;;;;;;;6.50;2.35;;;;;;;12.71;59.34;101929.90;1747473;81;21077;-50
2022/12/22 09:29:51;;;;;;;11.95;2.58;;;;;;;12.75;59.31;101927.67;1746314;80;21026;-50
2022/12/22 09:32:18;;;;;;;7.15;1.70;;;;;;;12.74;59.22;101923.31;1756747;80;21074;-50
2022/12/22 09:34:44;;;;;;;6.12;1.92;;;;;;;12.71;59.05;101926.41;1749228;80;20993;-50
2022/12/22 09:37:14;;;;;;;4.08;1.80;;;;;;;12.67;59.00;101924.29;1732443;81;21129;-50
2022/12/22 09:39:41;;;;;;;6.58;2.20;;;;;;;12.65;58.42;101920.80;1771993;80;21041;-50
2022/12/22 09:42:13;;;;;;;4.85;2.30;;;;;;;12.65;58.50;101919.49;1769906;80;21033;-50
2022/12/22 09:44:45;;;;;;;5.45;2.12;;;;;;;12.66;58.69;101919.93;1765132;80;21022;-50
2022/12/22 09:47:27;;;;;;;7.53;2.27;;;;;;;12.69;58.87;101915.99;1758086;80;20995;-50
2022/12/22 09:49:54;;;;;;;6.42;2.40;;;;;;;12.72;58.95;101913.33;1743757;80;21140;-50
2022/12/22 09:52:38;;;;;;;6.08;2.12;;;;;;;12.78;58.87;101914.55;1739855;81;21510;-50
2022/12/22 09:55:20;;;;;;;5.90;1.55;;;;;;;12.79;59.05;101909.77;1717304;82;21511;-50
2022/12/22 09:57:47;;;;;;;7.90;2.20;;;;;;;12.81;59.02;101906.70;1690117;84;21090;-50
2022/12/22 10:00:16;;;;;;;5.87;2.02;;;;;;;12.84;58.94;101912.30;1691051;84;21066;-50
2022/12/22 14:45:32;;;;;;;10.15;1.95;;;;;;;10.46;72.04;101749.78;1777863;80;21082;-58
2022/12/22 14:48:00;;;;;;;9.08;2.92;;;;;;;10.76;70.49;101753.49;1762380;80;20979;-58
2022/12/22 14:50:28;;;;;;;5.92;2.37;;;;;;;10.89;69.82;101751.24;1754790;80;21073;-58
2022/12/22 14:52:59;;;;;;;10.32;2.77;;;;;;;11.04;69.25;101748.97;1771325;80;21497;-57
2022/12/22 15:44:53;;;;;;;9.23;4.75;;;;;;;10.68;71.72;101739.66;1785017;80;21596;-59
2022/12/22 15:47:21;;;;;;;10.58;3.65;;;;;;;10.96;70.35;101739.92;1760147;80;21046;-57
2022/12/22 15:49:48;;;;;;;6.03;3.80;;;;;;;11.09;69.77;101744.13;1759512;80;20995;-57
2022/12/22 15:52:16;;;;;;;4.85;2.42;;;;;;;11.23;69.44;101747.48;1765550;80;21005;-57
2022/12/22 15:54:42;;;;;;;4.47;2.05;;;;;;;11.37;68.79;101746.91;1767492;80;21066;-57
2022/12/22 15:57:11;;;;;;;4.37;2.20;;;;;;;11.51;68.30;101744.63;1765249;80;21056;-57
2022/12/22 15:59:38;;;;;;;5.15;2.60;;;;;;;11.64;67.76;101741.03;1767842;80;20972;-57
2022/12/22 16:02:10;;;;;;;5.42;2.50;;;;;;;11.77;67.42;101750.46;1764127;80;21027;-58
2022/12/22 16:04:38;;;;;;;5.65;2.35;;;;;;;11.86;67.03;101738.63;1759593;80;21023;-59
2022/12/22 16:07:05;;;;;;;6.28;2.58;;;;;;;11.95;66.54;101742.45;1739791;81;21466;-58
2022/12/22 16:09:41;;;;;;;7.20;2.27;;;;;;;12.00;66.14;101744.55;1745997;81;21096;-58
2022/12/22 16:12:16;;;;;;;8.85;2.65;;;;;;;12.04;65.80;101738.41;1755190;80;21014;-58
2022/12/22 16:14:45;;;;;;;5.45;2.30;;;;;;;12.05;65.68;101741.03;1760698;80;21062;-58
2022/12/22 16:17:18;;;;;;;9.58;2.95;;;;;;;12.06;65.64;101741.87;1757411;80;20978;-58
2022/12/22 16:19:45;;;;;;;4.50;2.15;;;;;;;12.12;65.63;101739.18;1733974;82;21038;-58
2022/12/22 16:22:13;;;;;;;4.30;2.27;;;;;;;12.15;65.57;101737.85;1735695;82;21513;-58
2022/12/22 16:24:41;;;;;;;4.55;2.40;;;;;;;12.18;65.42;101739.10;1730500;82;21094;-58
2022/12/22 16:27:13;;;;;;;5.95;3.08;;;;;;;12.23;65.14;101738.61;1727092;82;21043;-58
2022/12/22 16:29:42;;;;;;;6.08;3.00;;;;;;;12.26;65.06;101735.52;1722098;82;21057;-59
2022/12/22 16:32:24;;;;;;;7.35;3.20;;;;;;;12.22;65.16;101735.56;1729384;82;21002;-58
2022/12/22 16:34:51;;;;;;;6.65;2.42;;;;;;;12.22;65.20;101742.97;1738433;82;20970;-59
2022/12/22 16:37:18;;;;;;;5.85;3.52;;;;;;;12.21;65.25;101740.38;1714670;82;21065;-59
2022/12/22 16:39:45;;;;;;;5.53;3.52;;;;;;;12.22;65.18;101736.88;1723761;82;21093;-58
2022/12/22 16:42:13;;;;;;;6.55;3.37;;;;;;;12.23;65.17;101743.40;1732934;82;21029;-58
2022/12/22 16:44:42;;;;;;;6.08;3.02;;;;;;;12.24;65.07;101732.53;1713216;82;20994;-58
2022/12/22 16:47:22;;;;;;;11.53;2.02;;;;;;;12.25;65.05;101734.24;1728466;82;21022;-58
2022/12/22 16:49:49;;;;;;;3.40;1.77;;;;;;;12.27;65.04;101729.86;1652570;86;21517;-58
2022/12/22 16:52:21;;;;;;;7.92;1.85;;;;;;;12.30;65.08;101734.19;1655594;85;21584;-58
2022/12/22 16:54:48;;;;;;;5.75;2.12;;;;;;;12.32;64.87;101728.06;1604924;88;21597;-58
2022/12/22 16:57:14;;;;;;;6.20;2.30;;;;;;;12.34;64.84;101733.27;1602821;88;21080;-58
2022/12/22 16:59:41;;;;;;;5.28;1.92;;;;;;;12.35;64.82;101731.92;1603556;88;22245;-58
2022/12/22 17:02:22;;;;;;;3.95;1.80;;;;;;;12.35;64.72;101725.40;1605314;88;21760;-58
2022/12/22 17:04:50;;;;;;;3.05;1.70;;;;;;;12.38;64.73;101726.68;1570226;90;21027;-59
2022/12/22 17:07:16;;;;;;;8.00;3.00;;;;;;;12.40;64.51;101720.12;1566503;90;21141;-58
2022/12/22 17:09:51;;;;;;;4.42;1.90;;;;;;;12.41;64.36;101720.09;1565889;90;21147;-58
2022/12/22 17:12:21;;;;;;;6.47;1.87;;;;;;;12.41;64.18;101721.40;1499249;94;21577;-58
2022/12/22 17:14:48;;;;;;;3.27;1.80;;;;;;;12.41;64.34;101714.87;1411061;99;22072;-58
2022/12/22 17:17:22;;;;;;;3.80;1.57;;;;;;;12.44;64.42;101716.16;1430770;98;21644;-58
2022/12/22 17:19:49;;;;;;;4.28;1.50;;;;;;;12.48;64.37;101719.14;1432220;98;21113;-58
2022/12/22 17:22:27;;;;;;;7.90;1.90;;;;;;;12.53;64.29;101714.70;1446780;97;21166;-58
2022/12/22 17:24:56;;;;;;;7.47;1.70;;;;;;;12.57;64.23;101721.59;1453661;97;21102;-58
2022/12/22 17:27:27;;;;;;;5.90;2.00;;;;;;;12.59;64.09;101717.22;1458929;98;21168;-58
2022/12/22 17:29:54;;;;;;;8.35;2.05;;;;;;;12.60;64.08;101722.88;1446624;97;21136;-58
2022/12/22 17:32:21;;;;;;;4.95;2.15;;;;;;;12.60;64.09;101723.31;1440873;98;21089;-58
2022/12/22 17:34:48;;;;;;;6.05;2.20;;;;;;;12.58;64.15;101720.73;1409855;99;21671;-58
2022/12/22 17:37:20;;;;;;;4.70;1.77;;;;;;;12.60;64.30;101721.56;1416958;100;21142;-58
2022/12/22 17:39:51;;;;;;;6.30;2.02;;;;;;;12.62;64.21;101719.80;1416811;100;21158;-58
2022/12/22 17:42:22;;;;;;;4.90;1.70;;;;;;;12.63;64.13;101725.42;1421714;100;21198;-58
2022/12/22 17:44:49;;;;;;;2.37;1.50;;;;;;;12.64;64.03;101721.07;1451407;98;21202;-58
2022/12/22 17:47:19;;;;;;;2.92;1.55;;;;;;;12.64;63.84;101719.77;1450259;97;21084;-58
2022/12/22 17:49:46;;;;;;;4.40;1.55;;;;;;;12.64;63.88;101726.29;1455271;97;21092;-58
2022/12/22 17:52:18;;;;;;;6.85;1.87;;;;;;;12.64;63.83;101719.33;1472108;95;21094;-58
2022/12/22 17:54:46;;;;;;;4.33;1.80;;;;;;;12.66;63.73;101717.99;1498794;95;21091;-58
2022/12/22 17:57:30;;;;;;;4.22;1.98;;;;;;;12.66;63.61;101722.78;1506262;94;21486;-58
2022/12/22 17:59:57;;;;;;;3.77;1.40;;;;;;;12.67;63.52;101720.61;1480588;95;21094;-58
2022/12/22 18:02:24;;;;;;;6.90;1.70;;;;;;;12.67;63.69;101719.73;1473921;95;21493;-58
2022/12/22 18:04:51;;;;;;;8.05;2.10;;;;;;;12.65;63.80;101719.73;1478820;95;21563;-58
2022/12/22 18:07:20;;;;;;;3.05;2.27;;;;;;;12.65;63.93;101711.90;1500520;92;21205;-58
2022/12/22 18:09:47;;;;;;;7.28;2.20;;;;;;;12.67;63.97;101715.81;1596273;88;21628;-58
2022/12/22 18:12:23;;;;;;;4.33;2.10;;;;;;;12.66;63.89;101712.33;1677577;83;21540;-58
2022/12/22 18:14:50;;;;;;;7.70;2.12;;;;;;;12.66;63.95;101713.64;1707841;83;22765;-58
2022/12/22 18:17:23;;;;;;;4.42;2.00;;;;;;;12.64;64.05;101704.97;1698994;84;21058;-58
2022/12/22 18:19:50;;;;;;;5.92;2.35;;;;;;;12.66;64.15;101711.03;1665888;85;21554;-58
2022/12/22 18:22:22;;;;;;;3.95;1.85;;;;;;;12.67;64.31;101716.69;1667852;84;21042;-58
2022/12/22 18:24:49;;;;;;;9.20;2.45;;;;;;;12.69;64.38;101713.61;1666291;85;21098;-58
2022/12/22 18:27:16;;;;;;;4.80;2.30;;;;;;;12.71;64.30;101716.19;1663732;85;21130;-58
2022/12/22 18:29:43;;;;;;;8.78;2.75;;;;;;;12.73;64.24;101714.41;1667292;84;21091;-58
2022/12/22 18:32:10;;;;;;;5.08;1.87;;;;;;;12.74;64.23;101710.47;1663301;85;21059;-58
2022/12/22 18:34:37;;;;;;;4.53;2.08;;;;;;;12.74;64.18;101709.16;1661421;85;21063;-58
2022/12/22 18:37:07;;;;;;;4.00;2.10;;;;;;;12.76;64.26;101709.13;1667152;84;21058;-58
2022/12/22 18:39:34;;;;;;;5.08;2.22;;;;;;;12.77;64.19;101711.74;1658706;85;21031;-58
2022/12/22 18:42:01;;;;;;;7.08;2.77;;;;;;;12.78;64.15;101709.53;1646275;86;21557;-59
2022/12/22 18:44:28;;;;;;;6.33;4.25;;;;;;;12.80;64.19;101709.06;1668249;84;20996;-58
2022/12/22 18:46:55;;;;;;;6.97;4.17;;;;;;;12.80;64.07;101702.53;1660923;85;21071;-58
2022/12/22 18:49:23;;;;;;;6.95;5.00;;;;;;;12.81;64.08;101708.19;1676169;85;21129;-58
2022/12/22 18:51:50;;;;;;;6.05;4.78;;;;;;;12.81;64.20;101702.97;1676682;84;21079;-58
2022/12/22 18:54:35;;;;;;;11.97;5.28;;;;;;;12.84;64.20;101700.30;1657923;86;21113;-58
2022/12/22 18:57:00;;;;;;;8.58;3.92;;;;;;;12.86;64.07;101697.20;1655536;85;21098;-58
2022/12/22 18:59:27;;;;;;;6.10;2.80;;;;;;;12.88;63.99;101704.58;1668972;84;21487;-57
2022/12/22 19:02:05;;;;;;;5.55;1.90;;;;;;;12.87;63.86;101701.56;1670272;84;21114;-58
2022/12/22 20:22:54;;;;;;;8.05;3.77;;;;;;;9.51;84.32;101684.70;1799474;79;27629;-50
2022/12/22 20:25:23;;;;;;;13.95;4.10;;;;;;;10.59;77.33;101676.82;1721042;82;21582;-50
2022/12/22 20:27:50;;;;;;;10.40;3.50;;;;;;;10.87;75.89;101680.09;1700709;82;21056;-50
2022/12/22 20:30:22;;;;;;;9.03;3.45;;;;;;;11.01;75.62;101684.73;1706281;82;21087;-50
2022/12/22 20:32:48;;;;;;;11.05;3.67;;;;;;;11.16;75.38;101682.00;1714787;82;21004;-50
2022/12/22 20:35:16;;;;;;;8.18;3.40;;;;;;;11.34;74.88;101673.13;1718294;82;21071;-51
2022/12/22 20:37:43;;;;;;;6.55;3.72;;;;;;;11.52;74.30;101668.17;1718595;82;21055;-51
2022/12/22 20:40:28;;;;;;;11.73;3.15;;;;;;;11.68;73.79;101667.15;1704903;82;21071;-51
2022/12/22 20:42:56;;;;;;;8.53;4.42;;;;;;;11.84;73.04;101659.56;1710165;82;21150;-51
2022/12/22 20:45:22;;;;;;;9.30;4.00;;;;;;;12.01;72.32;101658.91;1696317;83;21076;-51
2022/12/22 20:47:49;;;;;;;10.18;3.33;;;;;;;12.14;71.85;101657.84;1696292;83;21592;-51
2022/12/22 20:50:27;;;;;;;9.83;3.02;;;;;;;12.23;71.12;101652.07;1701118;82;21094;-51
2022/12/22 20:52:55;;;;;;;9.20;3.00;;;;;;;12.34;70.60;101653.23;1713976;83;21063;-50
2022/12/22 20:55:24;;;;;;;7.95;2.60;;;;;;;12.42;70.09;101651.36;1684540;83;21585;-51
2022/12/22 20:57:51;;;;;;;7.17;2.83;;;;;;;12.48;69.67;101647.78;1706001;82;21580;-51
2022/12/22 21:00:25;;;;;;;9.40;3.80;;;;;;;12.53;69.37;101652.50;1703162;83;21087;-51
2022/12/22 21:02:51;;;;;;;8.23;3.85;;;;;;;12.57;69.18;101653.72;1681712;84;21046;-50
2022/12/22 21:05:18;;;;;;;7.95;3.70;;;;;;;12.61;68.80;101654.08;1683467;84;21101;-51
2022/12/22 21:07:46;;;;;;;8.18;3.83;;;;;;;12.65;68.58;101651.84;1681069;84;21026;-51
2022/12/22 21:10:21;;;;;;;7.37;4.10;;;;;;;12.67;68.33;101650.10;1680822;84;21117;-50
2022/12/22 21:12:49;;;;;;;4.17;3.15;;;;;;;12.68;68.09;101638.75;1679977;83;21066;-50
2022/12/22 21:15:20;;;;;;;5.75;3.10;;;;;;;12.71;67.96;101641.33;1676875;85;21069;-50
2022/12/22 21:17:47;;;;;;;7.62;4.17;;;;;;;12.72;67.83;101645.65;1649041;86;21100;-50
2022/12/22 21:20:19;;;;;;;6.75;3.42;;;;;;;12.72;67.54;101645.65;1641238;85;21164;-53
2022/12/22 21:22:46;;;;;;;8.15;3.05;;;;;;;12.72;67.38;101637.81;1564311;90;21024;-51
2022/12/22 21:25:14;;;;;;;6.83;2.87;;;;;;;12.69;67.38;101643.11;1573235;90;21109;-51
2022/12/22 21:27:43;;;;;;;5.15;2.65;;;;;;;12.68;67.50;101637.45;1575436;90;21061;-51
2022/12/22 21:30:24;;;;;;;5.35;2.50;;;;;;;12.66;67.65;101638.35;1565034;90;21112;-51
2022/12/22 21:32:51;;;;;;;5.17;2.77;;;;;;;12.66;67.51;101637.91;1551227;90;21116;-50
2022/12/22 21:35:26;;;;;;;6.47;2.80;;;;;;;12.67;67.43;101633.13;1563205;90;21613;-51
2022/12/22 21:37:52;;;;;;;6.70;2.70;;;;;;;12.65;67.29;101637.95;1521157;92;21116;-50
2022/12/22 21:40:22;;;;;;;5.28;2.55;;;;;;;12.64;67.35;101633.59;1508009;92;21140;-51
2022/12/22 21:42:49;;;;;;;5.75;2.92;;;;;;;12.63;67.61;101632.73;1513357;92;21084;-50
2022/12/22 21:45:21;;;;;;;4.72;2.60;;;;;;;12.63;67.56;101629.28;1519932;93;21159;-51
2022/12/22 21:47:48;;;;;;;4.10;2.52;;;;;;;12.62;67.58;101632.76;1502905;93;21073;-50
2022/12/22 21:50:30;;;;;;;5.58;3.10;;;;;;;12.59;67.57;101628.44;1513211;93;21109;-50
2022/12/22 21:52:57;;;;;;;6.47;3.02;;;;;;;12.57;67.60;101628.91;1494756;95;21175;-50
2022/12/22 21:55:30;;;;;;;6.03;2.60;;;;;;;12.56;67.66;101624.59;1473470;96;21148;-51
2022/12/22 21:57:57;;;;;;;6.08;2.50;;;;;;;12.53;67.94;101617.27;1489567;95;21145;-51
2022/12/22 22:00:24;;;;;;;6.35;2.90;;;;;;;12.53;68.14;101622.02;1475134;96;21195;-51
2022/12/22 22:02:51;;;;;;;5.45;2.72;;;;;;;12.55;68.20;101622.02;1461190;97;21064;-51
2022/12/22 22:05:34;;;;;;;6.30;3.65;;;;;;;12.55;68.22;101624.16;1490359;95;21178;-51
2022/12/22 22:08:01;;;;;;;7.72;3.30;;;;;;;12.56;68.27;101627.20;1486602;96;21148;-51
2022/12/22 22:10:32;;;;;;;6.72;3.20;;;;;;;12.57;68.23;101627.61;1487995;95;21126;-51
2022/12/22 22:13:00;;;;;;;3.95;2.95;;;;;;;12.58;68.15;101621.52;1466820;97;21219;-51
2022/12/22 22:15:27;;;;;;;5.70;3.25;;;;;;;12.60;68.15;101617.13;1449796;98;21174;-50
2022/12/22 22:17:54;;;;;;;4.87;3.50;;;;;;;12.63;67.93;101609.23;1446953;98;21173;-51
2022/12/22 22:20:24;;;;;;;8.68;3.77;;;;;;;12.65;67.79;101611.37;1464695;97;21146;-50
2022/12/22 22:22:52;;;;;;;10.05;3.62;;;;;;;12.67;67.62;101610.06;1463589;96;21576;-51
2022/12/22 22:25:18;;;;;;;7.35;3.98;;;;;;;12.67;67.58;101604.84;1478156;95;21201;-50
2022/12/22 22:27:45;;;;;;;8.10;3.15;;;;;;;12.68;67.65;101607.42;1467096;97;21120;-50
2022/12/22 22:30:19;;;;;;;8.78;5.33;;;;;;;12.70;67.57;101613.48;1475641;95;21607;-50
2022/12/22 22:32:47;;;;;;;9.25;3.60;;;;;;;12.73;67.34;101609.95;1472112;95;21089;-50
2022/12/22 22:35:14;;;;;;;4.53;3.42;;;;;;;12.72;67.31;101606.47;1489356;95;21178;-50
2022/12/22 22:37:43;;;;;;;7.22;3.35;;;;;;;12.71;67.21;101606.52;1517580;94;21201;-51
2022/12/22 22:40:12;;;;;;;6.22;3.45;;;;;;;12.71;67.31;101610.43;1513160;94;21235;-51
2022/12/22 22:42:39;;;;;;;8.83;4.40;;;;;;;12.70;67.32;101599.11;1519358;94;21079;-50
2022/12/22 22:45:07;;;;;;;5.83;3.40;;;;;;;12.70;67.42;101592.59;1551919;89;21082;-51
2022/12/22 22:47:34;;;;;;;5.33;3.62;;;;;;;12.71;67.37;101593.45;1593174;89;21038;-51
2022/12/22 22:50:01;;;;;;;7.72;3.92;;;;;;;12.70;67.24;101590.41;1590149;89;21050;-50
2022/12/22 22:52:27;;;;;;;5.03;3.85;;;;;;;12.69;67.33;101584.78;1586310;89;21111;-50
2022/12/22 22:54:54;;;;;;;6.92;3.90;;;;;;;12.68;67.26;101589.14;1577070;90;21078;-51
2022/12/22 22:57:20;;;;;;;8.23;3.12;;;;;;;12.69;67.41;101586.96;1605242;87;21076;-50
2022/12/22 22:59:47;;;;;;;5.75;3.62;;;;;;;12.74;67.29;101585.55;1614567;87;21070;-50
2022/12/22 23:02:15;;;;;;;7.20;3.92;;;;;;;12.75;67.32;101584.24;1616742;87;21053;-50
2022/12/22 23:04:42;;;;;;;8.40;4.20;;;;;;;12.77;67.16;101580.29;1580637;89;21101;-50
2022/12/22 23:07:09;;;;;;;8.63;3.98;;;;;;;12.76;67.11;101582.03;1609107;88;21073;-50
2022/12/22 23:09:36;;;;;;;8.23;3.95;;;;;;;12.74;67.06;101581.20;1624628;83;21078;-51
2022/12/22 23:12:04;;;;;;;6.85;4.28;;;;;;;12.72;67.15;101575.14;1684492;83;21014;-51
2022/12/22 23:14:30;;;;;;;6.72;4.08;;;;;;;12.72;67.14;101577.75;1691137;83;21062;-50
2022/12/22 23:16:57;;;;;;;8.18;3.90;;;;;;;12.68;67.25;101570.86;1708229;82;21060;-51
2022/12/22 23:19:24;;;;;;;8.95;4.05;;;;;;;12.68;67.40;101573.47;1756764;80;21079;-50
2022/12/22 23:21:51;;;;;;;6.50;4.65;;;;;;;12.68;67.31;101569.98;1759226;80;21117;-50
2022/12/22 23:24:17;;;;;;;6.12;4.37;;;;;;;12.67;67.32;101563.93;1749855;80;21018;-51
2022/12/22 23:26:44;;;;;;;4.60;3.67;;;;;;;12.70;67.28;101565.60;1760046;80;21138;-51
2022/12/22 23:29:10;;;;;;;5.55;4.08;;;;;;;12.65;67.30;101564.37;1764114;80;21019;-50